Time;durP1;ratioP1;P1;durP2;ratioP2;P2;SDS_P1;SDS_P2;PMS_P1;PMS_P2;Temp;Humidity;BMP_temperature;BMP_pressure;BME280_temperature;BME280_humidity;BME280_pressure;Samples;Min_cycle;Max_cycle;Signal;HPM_P1;HPM_P2
2022/08/08 00:00:48;;;;;;;1.90;1.70;;;17.10;99.90;;;;;;4992626;28;20538;-76
2022/08/08 00:03:32;;;;;;;3.70;1.87;;;16.90;99.90;;;;;;4992401;28;21016;-76
2022/08/08 00:06:08;;;;;;;1.63;1.53;;;16.80;99.90;;;;;;4992167;28;20473;-76
2022/08/08 00:08:45;;;;;;;9.13;2.20;;;16.80;99.90;;;;;;5010399;28;20417;-77
2022/08/08 00:11:15;;;;;;;2.20;1.60;;;16.80;99.90;;;;;;4992411;28;20493;-77
2022/08/08 00:14:05;;;;;;;2.10;1.90;;;16.70;99.90;;;;;;5009943;28;20515;-76
2022/08/08 00:17:25;;;;;;;1.87;1.77;;;16.80;99.90;;;;;;5009986;28;20499;-76
2022/08/08 00:20:11;;;;;;;3.13;1.90;;;16.80;99.90;;;;;;4949158;29;20473;-76
2022/08/08 00:22:45;;;;;;;5.33;2.10;;;16.70;99.90;;;;;;5009716;28;20412;-76
2022/08/08 00:25:23;;;;;;;2.60;2.23;;;16.70;99.90;;;;;;4991596;28;20431;-76
2022/08/08 00:27:55;;;;;;;1.70;1.60;;;16.70;99.90;;;;;;5009152;28;20467;-76
2022/08/08 00:30:23;;;;;;;3.47;2.00;;;16.70;99.90;;;;;;5009274;28;20996;-76
2022/08/08 00:33:03;;;;;;;2.30;1.73;;;16.60;99.90;;;;;;4991531;28;20412;-76
2022/08/08 00:35:43;;;;;;;2.33;2.00;;;16.40;99.90;;;;;;4991574;28;20420;-76
2022/08/08 00:38:41;;;;;;;2.90;1.77;;;16.30;99.90;;;;;;5009337;28;20416;-76
2022/08/08 00:41:39;;;;;;;4.60;1.97;;;16.10;99.90;;;;;;5009215;28;20423;-76
2022/08/08 00:44:37;;;;;;;2.53;1.87;;;16.00;99.90;;;;;;5009272;28;20418;-76
2022/08/08 00:47:25;;;;;;;2.93;2.13;;;16.10;99.90;;;;;;4991342;28;20534;-76
2022/08/08 00:50:19;;;;;;;1.80;1.70;;;16.20;99.90;;;;;;5009034;28;20439;-76
2022/08/08 00:53:01;;;;;;;3.73;2.20;;;16.10;99.90;;;;;;4991686;28;20434;-77
2022/08/08 00:56:00;;;;;;;4.17;2.30;;;16.20;99.90;;;;;;5011121;28;20419;-80
2022/08/08 00:58:31;;;;;;;4.40;2.20;;;16.20;99.90;;;;;;4996934;28;20433;-81
2022/08/08 01:01:25;;;;;;;2.53;2.33;;;16.00;99.90;;;;;;5016194;28;20442;-81
2022/08/08 01:04:26;;;;;;;3.53;2.30;;;15.70;99.90;;;;;;5015315;28;20428;-80
2022/08/08 01:07:34;;;;;;;2.57;2.00;;;15.40;99.90;;;;;;4936142;29;20480;-76
2022/08/08 01:10:27;;;;;;;3.13;2.13;;;15.50;99.90;;;;;;5006234;28;20966;-77
2022/08/08 01:13:04;;;;;;;2.60;2.40;;;15.60;99.90;;;;;;4997810;28;20464;-77
2022/08/08 01:16:09;;;;;;;2.40;2.20;;;15.60;99.90;;;;;;5013162;28;20424;-77
2022/08/08 01:19:12;;;;;;;2.60;2.03;;;15.60;99.90;;;;;;4981780;28;20906;-77
2022/08/08 01:21:50;;;;;;;3.13;1.87;;;15.60;99.90;;;;;;5012732;28;20436;-77
2022/08/08 01:24:41;;;;;;;2.57;2.37;;;15.50;99.90;;;;;;5012917;28;20421;-77
2022/08/08 01:27:31;;;;;;;3.73;2.40;;;15.70;99.90;;;;;;4989298;28;20474;-76
2022/08/08 01:30:18;;;;;;;6.20;2.20;;;15.70;99.90;;;;;;5012362;28;20477;-77
2022/08/08 01:33:21;;;;;;;2.03;1.83;;;15.80;99.90;;;;;;5012526;28;20513;-78
2022/08/08 01:36:15;;;;;;;3.07;2.33;;;15.70;99.90;;;;;;4994993;28;20429;-80
2022/08/08 01:39:07;;;;;;;2.60;1.90;;;15.80;99.90;;;;;;4994899;28;20464;-79
2022/08/08 01:41:44;;;;;;;2.37;2.17;;;15.80;99.90;;;;;;5012579;28;20449;-79
2022/08/08 01:44:37;;;;;;;2.60;2.40;;;15.80;99.90;;;;;;4994922;28;20954;-80
2022/08/08 01:47:22;;;;;;;2.50;2.20;;;15.80;99.90;;;;;;4995020;28;20454;-81
2022/08/08 01:50:14;;;;;;;3.33;2.30;;;15.60;99.90;;;;;;5012452;28;21016;-81
2022/08/08 01:53:18;;;;;;;4.33;2.40;;;15.70;99.90;;;;;;5012311;28;20446;-80
2022/08/08 01:56:02;;;;;;;7.50;2.13;;;15.70;99.90;;;;;;4994505;28;21045;-77
2022/08/08 01:58:37;;;;;;;4.07;2.40;;;15.70;99.90;;;;;;5012606;28;20996;-78
2022/08/08 02:01:30;;;;;;;3.43;2.10;;;15.70;99.90;;;;;;5011773;28;20520;-77
2022/08/08 02:04:15;;;;;;;3.37;2.03;;;15.60;99.90;;;;;;4994063;28;20426;-77
2022/08/08 02:07:07;;;;;;;2.70;2.20;;;15.60;99.90;;;;;;5011965;28;20851;-77
2022/08/08 02:09:36;;;;;;;3.17;2.20;;;15.60;99.90;;;;;;4994291;28;20453;-77
2022/08/08 02:12:10;;;;;;;2.50;2.00;;;15.60;99.90;;;;;;4994763;28;21149;-78
2022/08/08 02:14:48;;;;;;;4.03;1.90;;;15.50;99.90;;;;;;4993397;28;20440;-77
2022/08/08 02:17:21;;;;;;;5.33;2.57;;;15.50;99.90;;;;;;5011547;28;20421;-76
2022/08/08 02:19:56;;;;;;;2.50;2.30;;;15.30;99.90;;;;;;5011130;28;20446;-77
2022/08/08 02:22:55;;;;;;;7.83;2.57;;;14.90;99.90;;;;;;5011160;28;20519;-77
2022/08/08 02:25:34;;;;;;;2.60;2.40;;;14.80;99.90;;;;;;4989716;28;20491;-77
2022/08/08 02:28:16;;;;;;;2.87;2.57;;;14.70;99.90;;;;;;5011140;28;20472;-78
2022/08/08 02:31:05;;;;;;;6.57;2.87;;;14.50;99.90;;;;;;5011154;28;20440;-80
2022/08/08 02:34:02;;;;;;;2.70;2.50;;;14.40;99.90;;;;;;4993147;28;20508;-79
2022/08/08 02:36:50;;;;;;;5.57;2.77;;;14.50;99.90;;;;;;4993103;28;20447;-79
2022/08/08 02:39:45;;;;;;;5.87;2.30;;;14.50;99.90;;;;;;4992743;28;21317;-79
2022/08/08 02:42:17;;;;;;;2.40;2.20;;;14.60;99.90;;;;;;4995599;28;20515;-80
2022/08/08 02:45:15;;;;;;;3.53;2.20;;;14.70;99.90;;;;;;4995902;28;20512;-80
2022/08/08 02:47:56;;;;;;;3.00;2.70;;;14.80;99.90;;;;;;5013940;28;20409;-80
2022/08/08 02:51:13;;;;;;;2.20;2.10;;;14.80;99.90;;;;;;4995611;28;20448;-80
2022/08/08 02:54:15;;;;;;;5.27;2.47;;;14.80;99.90;;;;;;4978628;28;20422;-79
2022/08/08 02:56:50;;;;;;;5.23;2.73;;;14.90;99.90;;;;;;4993397;28;21096;-80
2022/08/08 02:59:52;;;;;;;2.60;2.40;;;14.80;99.90;;;;;;5011374;28;20440;-80
2022/08/08 03:02:45;;;;;;;3.27;2.20;;;14.80;99.90;;;;;;5011354;28;20496;-80
2022/08/08 03:05:52;;;;;;;3.33;2.47;;;14.80;99.90;;;;;;5014231;28;20433;-79
2022/08/08 03:08:45;;;;;;;3.30;1.97;;;14.80;99.90;;;;;;5000311;28;20529;-80
2022/08/08 03:11:10;;;;;;;4.50;2.77;;;14.70;99.90;;;;;;5018894;28;20404;-80
2022/08/08 03:14:08;;;;;;;3.27;2.93;;;14.50;99.90;;;;;;5019000;28;20431;-80
2022/08/08 03:16:43;;;;;;;3.83;3.47;;;14.40;99.90;;;;;;5000668;28;20220;-80
2022/08/08 03:19:37;;;;;;;3.63;3.30;;;14.30;99.90;;;;;;4999764;28;20448;-80
2022/08/08 03:22:02;;;;;;;3.67;2.87;;;14.40;99.90;;;;;;5002545;28;20430;-81
2022/08/08 03:24:28;;;;;;;3.50;3.20;;;14.50;99.90;;;;;;5000284;28;20503;-81
2022/08/08 03:27:03;;;;;;;2.97;2.77;;;14.60;99.90;;;;;;5000697;28;20534;-80
2022/08/08 03:29:37;;;;;;;5.83;3.03;;;14.70;99.90;;;;;;5000831;28;20634;-80
2022/08/08 03:34:47;;;;;;;3.23;2.90;;;14.70;99.90;;;;;;4999573;28;20412;-81
2022/08/08 03:37:17;;;;;;;3.47;3.17;;;14.70;99.90;;;;;;4997933;28;20552;-81
2022/08/08 03:39:44;;;;;;;3.10;2.90;;;14.70;99.90;;;;;;4998503;28;20206;-81
2022/08/08 03:42:17;;;;;;;3.77;3.47;;;14.70;99.90;;;;;;4998053;28;20432;-80
2022/08/08 03:44:43;;;;;;;3.60;3.30;;;14.60;99.90;;;;;;5015411;28;20425;-81
2022/08/08 03:47:09;;;;;;;5.43;3.80;;;14.60;99.90;;;;;;4994926;28;20434;-77
2022/08/08 03:49:37;;;;;;;3.90;3.60;;;14.40;99.90;;;;;;4992495;28;20556;-77
2022/08/08 03:52:03;;;;;;;3.43;3.13;;;14.50;99.90;;;;;;5009972;28;20425;-77
2022/08/08 03:54:28;;;;;;;3.30;3.00;;;14.50;99.90;;;;;;4992319;28;20432;-78
2022/08/08 03:56:54;;;;;;;3.40;3.10;;;14.50;99.90;;;;;;5009631;28;20540;-77
2022/08/08 03:59:20;;;;;;;4.03;3.30;;;14.50;99.90;;;;;;4991423;28;20458;-77
2022/08/08 04:01:46;;;;;;;3.57;3.27;;;14.50;99.90;;;;;;5010955;28;20582;-78
2022/08/08 04:04:11;;;;;;;5.40;4.20;;;14.40;99.90;;;;;;5010985;28;20194;-79
2022/08/08 04:06:38;;;;;;;3.80;3.50;;;14.40;99.90;;;;;;4976577;28;20210;-77
2022/08/08 04:09:06;;;;;;;4.20;3.40;;;14.50;99.90;;;;;;4992332;28;20215;-77
2022/08/08 04:11:33;;;;;;;3.90;3.60;;;14.50;99.90;;;;;;5009404;28;20429;-77
2022/08/08 04:13:59;;;;;;;3.80;3.50;;;14.60;99.90;;;;;;5009330;28;20424;-78
2022/08/08 04:16:25;;;;;;;4.90;3.40;;;14.60;99.90;;;;;;4991644;28;20469;-78
2022/08/08 04:18:51;;;;;;;4.90;4.40;;;14.50;99.90;;;;;;5009392;28;20421;-78
2022/08/08 04:21:17;;;;;;;4.10;3.60;;;14.50;99.90;;;;;;5008484;28;20475;-78
2022/08/08 04:23:43;;;;;;;4.33;3.30;;;14.50;99.90;;;;;;4973518;28;20198;-78
2022/08/08 04:26:09;;;;;;;4.50;3.43;;;14.50;99.90;;;;;;4989833;28;20855;-78
2022/08/08 04:28:35;;;;;;;3.60;3.30;;;14.50;99.90;;;;;;5009413;28;20426;-79
2022/08/08 04:31:01;;;;;;;3.90;3.53;;;14.60;99.90;;;;;;5009035;28;20793;-78
2022/08/08 04:33:27;;;;;;;4.20;3.80;;;14.60;99.90;;;;;;4975011;28;20960;-79
2022/08/08 04:35:52;;;;;;;7.50;3.80;;;14.40;99.90;;;;;;4990975;28;20439;-79
2022/08/08 04:38:19;;;;;;;4.87;3.53;;;14.40;99.90;;;;;;4976494;28;20693;-79
2022/08/08 04:40:44;;;;;;;5.27;4.30;;;14.50;99.90;;;;;;4995299;28;20212;-79
2022/08/08 04:43:10;;;;;;;5.00;4.00;;;14.40;99.90;;;;;;5013486;28;20522;-79
2022/08/08 04:45:36;;;;;;;5.10;4.07;;;14.30;99.90;;;;;;4995707;28;20185;-79
2022/08/08 04:48:02;;;;;;;7.50;4.00;;;14.50;99.90;;;;;;5013381;28;20192;-79
2022/08/08 04:50:28;;;;;;;4.93;4.40;;;14.50;99.90;;;;;;4994913;28;20464;-79
2022/08/08 04:52:54;;;;;;;5.07;3.80;;;14.40;99.90;;;;;;5013284;28;20512;-79
2022/08/08 04:55:19;;;;;;;4.83;3.30;;;14.40;99.90;;;;;;5013616;28;20186;-79
2022/08/08 04:57:45;;;;;;;4.33;3.93;;;14.50;99.90;;;;;;5013100;28;20479;-79
2022/08/08 05:00:11;;;;;;;4.07;3.70;;;14.50;99.90;;;;;;4995489;28;20292;-79
2022/08/08 05:02:37;;;;;;;3.87;3.53;;;14.50;99.90;;;;;;4995320;28;20469;-79
2022/08/08 05:05:04;;;;;;;3.83;3.53;;;14.60;99.90;;;;;;4978860;28;20511;-79
2022/08/08 05:07:30;;;;;;;8.13;4.40;;;14.60;99.90;;;;;;4995628;28;20443;-80
2022/08/08 05:09:56;;;;;;;4.93;4.43;;;14.60;99.90;;;;;;4995549;28;21245;-79
2022/08/08 05:12:21;;;;;;;4.43;4.03;;;14.40;99.90;;;;;;5013320;28;20505;-79
2022/08/08 05:14:47;;;;;;;5.07;4.07;;;14.20;99.90;;;;;;5012803;28;20221;-79
2022/08/08 05:17:13;;;;;;;6.83;4.93;;;14.10;99.90;;;;;;5013118;28;20272;-78
2022/08/08 05:19:39;;;;;;;6.33;4.57;;;14.10;99.90;;;;;;4978664;28;20625;-78
2022/08/08 05:22:07;;;;;;;4.90;4.43;;;14.10;99.90;;;;;;5013201;28;20189;-79
2022/08/08 05:24:35;;;;;;;4.10;3.70;;;14.30;99.90;;;;;;4978778;28;20189;-78
2022/08/08 05:27:01;;;;;;;3.83;3.53;;;14.50;99.90;;;;;;4980489;28;20432;-79
2022/08/08 05:29:26;;;;;;;4.80;4.33;;;14.70;99.90;;;;;;5015052;28;20457;-79
2022/08/08 05:31:52;;;;;;;4.33;3.93;;;14.90;99.90;;;;;;4998759;28;20202;-78
2022/08/08 05:34:48;;;;;;;7.53;4.00;;;15.10;99.90;;;;;;4999706;28;20268;-79
2022/08/08 05:37:24;;;;;;;4.00;3.57;;;15.30;99.90;;;;;;4998679;28;20230;-78
2022/08/08 05:39:52;;;;;;;4.13;3.73;;;15.50;99.90;;;;;;5015571;28;20532;-79
2022/08/08 05:42:20;;;;;;;5.50;3.83;;;15.60;99.90;;;;;;4997124;28;20483;-79
2022/08/08 05:44:48;;;;;;;5.73;4.30;;;15.80;99.90;;;;;;4997515;28;20422;-79
2022/08/08 05:47:15;;;;;;;8.40;4.33;;;15.90;99.90;;;;;;4997207;28;20483;-79
2022/08/08 05:49:46;;;;;;;4.27;3.87;;;16.00;99.90;;;;;;4995539;28;20522;-78
2022/08/08 05:52:12;;;;;;;4.97;4.47;;;16.10;99.90;;;;;;5011243;28;20809;-79
2022/08/08 05:54:38;;;;;;;3.57;3.37;;;16.30;99.90;;;;;;5010950;28;20785;-79
2022/08/08 05:57:10;;;;;;;4.23;3.90;;;16.40;99.90;;;;;;4993429;28;20469;-79
2022/08/08 05:59:38;;;;;;;4.00;3.47;;;16.50;99.90;;;;;;5010608;28;20208;-79
2022/08/08 06:05:14;;;;;;;4.03;3.63;;;16.70;99.90;;;;;;5010902;28;20446;-79
2022/08/08 06:07:41;;;;;;;5.20;3.27;;;17.00;99.90;;;;;;4993721;28;20593;-79
2022/08/08 06:10:10;;;;;;;6.87;3.37;;;17.10;99.90;;;;;;4976409;28;20451;-79
2022/08/08 06:12:36;;;;;;;4.57;3.00;;;17.20;99.90;;;;;;4976278;28;20447;-79
2022/08/08 06:15:05;;;;;;;3.40;3.07;;;17.30;99.90;;;;;;4992615;28;20543;-79
2022/08/08 06:17:37;;;;;;;7.23;3.00;;;17.50;99.90;;;;;;4976594;28;20489;-79
2022/08/08 06:20:06;;;;;;;3.00;2.70;;;17.60;99.90;;;;;;5011463;28;20445;-79
2022/08/08 06:22:32;;;;;;;3.47;3.00;;;17.70;99.90;;;;;;4992958;28;20429;-79
2022/08/08 06:25:01;;;;;;;2.87;2.67;;;17.80;99.90;;;;;;4993130;28;20488;-79
2022/08/08 06:27:51;;;;;;;5.10;2.60;;;18.00;99.90;;;;;;5010685;28;20485;-79
2022/08/08 06:30:20;;;;;;;3.47;3.00;;;18.20;99.90;;;;;;4993097;28;20443;-79
2022/08/08 06:32:54;;;;;;;3.27;2.93;;;18.30;99.90;;;;;;5010127;28;20839;-79
2022/08/08 06:35:20;;;;;;;3.80;3.50;;;18.40;99.90;;;;;;4992731;28;20526;-79
2022/08/08 06:37:51;;;;;;;4.13;3.00;;;18.50;99.90;;;;;;5010490;28;20920;-79
2022/08/08 06:40:19;;;;;;;3.20;2.90;;;18.50;99.90;;;;;;4976976;28;20485;-79
2022/08/08 06:42:50;;;;;;;5.67;3.30;;;18.60;99.90;;;;;;4992739;28;20533;-79
2022/08/08 06:45:18;;;;;;;3.87;3.50;;;18.70;99.90;;;;;;5010836;28;20936;-79
2022/08/08 06:47:44;;;;;;;5.00;3.47;;;18.80;99.90;;;;;;4976485;28;20435;-79
2022/08/08 06:50:10;;;;;;;3.50;3.20;;;18.80;99.90;;;;;;4992638;28;20812;-79
2022/08/08 06:52:37;;;;;;;3.33;2.83;;;18.90;99.90;;;;;;4993159;28;20437;-79
2022/08/08 06:55:05;;;;;;;4.47;2.63;;;19.10;99.90;;;;;;4992656;28;20263;-79
2022/08/08 06:57:31;;;;;;;7.67;3.30;;;19.10;99.90;;;;;;4976710;28;20479;-79
2022/08/08 06:59:57;;;;;;;6.70;2.67;;;19.20;99.90;;;;;;4993071;28;20451;-80
2022/08/08 07:02:30;;;;;;;5.53;3.10;;;19.30;99.90;;;;;;4992511;28;20451;-80
2022/08/08 07:05:05;;;;;;;2.77;2.60;;;19.30;99.90;;;;;;4993467;28;20208;-80
2022/08/08 07:07:33;;;;;;;4.23;3.13;;;19.40;99.90;;;;;;5012309;28;20419;-79
2022/08/08 07:10:06;;;;;;;4.10;2.97;;;19.40;99.90;;;;;;4991944;28;20566;-79
2022/08/08 07:12:44;;;;;;;8.60;3.77;;;19.40;99.90;;;;;;4992095;28;20823;-79
2022/08/08 07:15:12;;;;;;;5.90;3.53;;;19.50;99.90;;;;;;4991786;28;20494;-79
2022/08/08 07:17:46;;;;;;;3.50;3.20;;;19.60;99.90;;;;;;5009896;28;20563;-79
2022/08/08 07:20:28;;;;;;;5.47;2.93;;;19.60;99.90;;;;;;4975851;28;20825;-79
2022/08/08 07:23:07;;;;;;;4.63;3.17;;;19.60;99.90;;;;;;4991922;28;20424;-79
2022/08/08 07:25:40;;;;;;;5.90;3.57;;;19.60;99.90;;;;;;4991995;28;20423;-79
2022/08/08 07:28:11;;;;;;;3.07;2.87;;;19.60;99.90;;;;;;4992531;28;20435;-79
2022/08/08 07:30:38;;;;;;;2.93;2.60;;;19.60;99.90;;;;;;4991457;28;20582;-79
2022/08/08 07:33:04;;;;;;;3.60;2.83;;;19.70;99.90;;;;;;4976262;28;20440;-78
2022/08/08 07:35:30;;;;;;;3.60;2.90;;;19.70;99.90;;;;;;4992805;28;20443;-78
2022/08/08 07:37:57;;;;;;;5.20;3.17;;;19.70;99.90;;;;;;4992041;28;20472;-78
2022/08/08 07:40:24;;;;;;;3.53;3.23;;;19.80;99.90;;;;;;5010498;28;20450;-79
2022/08/08 07:42:52;;;;;;;3.80;2.90;;;19.80;99.90;;;;;;4992761;28;20435;-78
2022/08/08 07:45:21;;;;;;;4.37;3.10;;;19.90;99.90;;;;;;5010124;28;20427;-79
2022/08/08 07:47:47;;;;;;;3.37;3.07;;;19.90;99.90;;;;;;4976044;28;20431;-79
2022/08/08 07:50:14;;;;;;;3.90;2.87;;;19.90;99.90;;;;;;4992024;28;20505;-79
2022/08/08 07:52:45;;;;;;;3.00;2.80;;;20.00;99.90;;;;;;4991841;28;20200;-79
2022/08/08 07:55:25;;;;;;;3.20;2.70;;;20.10;99.90;;;;;;5009376;28;20508;-78
2022/08/08 07:58:31;;;;;;;3.10;2.90;;;20.10;99.90;;;;;;5009572;28;20479;-79
2022/08/08 08:01:05;;;;;;;4.70;2.50;;;20.20;99.90;;;;;;5001215;28;20459;-78
2022/08/08 08:03:54;;;;;;;3.10;2.80;;;20.40;99.90;;;;;;4991537;28;20486;-78
2022/08/08 08:06:21;;;;;;;5.30;3.67;;;20.50;99.90;;;;;;4991304;28;20455;-78
2022/08/08 08:08:55;;;;;;;2.97;2.70;;;20.60;99.90;;;;;;4991036;28;20913;-78
2022/08/08 08:11:23;;;;;;;4.57;2.67;;;20.70;99.90;;;;;;4991244;28;20502;-78
2022/08/08 08:13:56;;;;;;;3.43;2.57;;;20.80;99.90;;;;;;4991489;28;20421;-80
2022/08/08 08:16:24;;;;;;;3.93;2.77;;;21.00;99.90;;;;;;4991513;28;20984;-80
2022/08/08 08:18:58;;;;;;;2.67;2.47;;;21.20;99.90;;;;;;4991026;28;20428;-80
2022/08/08 08:21:27;;;;;;;2.53;2.20;;;21.30;99.90;;;;;;5009300;28;20423;-79
2022/08/08 08:23:53;;;;;;;2.33;2.13;;;21.40;99.90;;;;;;4991578;28;20486;-80
2022/08/08 08:26:20;;;;;;;3.33;2.73;;;21.50;99.90;;;;;;4975887;28;20946;-80
2022/08/08 08:28:46;;;;;;;2.17;2.07;;;21.70;99.90;;;;;;4992069;28;20646;-80
2022/08/08 08:31:12;;;;;;;3.83;2.67;;;21.80;99.90;;;;;;4975275;28;20440;-79
2022/08/08 08:33:38;;;;;;;3.60;2.50;;;22.00;99.90;;;;;;4991489;28;20433;-81
2022/08/08 08:36:06;;;;;;;4.73;2.53;;;22.10;99.90;;;;;;4990831;28;20976;-80
2022/08/08 08:38:32;;;;;;;3.20;2.50;;;22.30;99.90;;;;;;4975299;28;20629;-80
2022/08/08 08:40:59;;;;;;;2.90;2.13;;;22.40;99.90;;;;;;4991615;28;20508;-80
2022/08/08 08:43:27;;;;;;;2.27;2.03;;;22.60;99.90;;;;;;4991605;28;20471;-79
2022/08/08 08:45:56;;;;;;;4.00;2.43;;;22.80;99.90;;;;;;4991159;28;20431;-80
2022/08/08 08:48:28;;;;;;;3.53;2.60;;;23.00;99.90;;;;;;4975471;28;20438;-81
2022/08/08 08:50:54;;;;;;;3.20;1.90;;;23.20;99.90;;;;;;4991752;28;20520;-80
2022/08/08 08:53:21;;;;;;;3.20;2.77;;;23.30;99.90;;;;;;5009475;28;20420;-80
2022/08/08 08:55:48;;;;;;;2.53;2.33;;;23.30;99.20;;;;;;5009274;28;20426;-80
2022/08/08 08:58:32;;;;;;;5.23;1.90;;;23.30;99.40;;;;;;4974994;28;20484;-81
2022/08/08 09:01:03;;;;;;;3.70;2.37;;;23.40;99.30;;;;;;4991071;28;20936;-80
2022/08/08 09:03:29;;;;;;;8.23;2.43;;;23.60;99.10;;;;;;4974966;28;20430;-80
2022/08/08 09:05:56;;;;;;;2.87;2.37;;;23.80;98.80;;;;;;5008471;28;20446;-79
2022/08/08 09:08:26;;;;;;;2.30;2.00;;;24.10;98.40;;;;;;5008604;28;20423;-80
2022/08/08 09:10:55;;;;;;;3.57;2.30;;;24.00;97.30;;;;;;4990857;28;20444;-80
2022/08/08 09:13:22;;;;;;;2.27;2.10;;;24.00;97.40;;;;;;5008694;28;20502;-80
2022/08/08 09:15:48;;;;;;;2.13;2.03;;;24.30;96.70;;;;;;4974756;28;20438;-80
2022/08/08 09:18:17;;;;;;;6.20;2.37;;;24.30;95.50;;;;;;4974815;28;20481;-81
2022/08/08 09:20:45;;;;;;;4.20;2.27;;;24.70;95.70;;;;;;4991151;28;21038;-81
2022/08/08 09:23:15;;;;;;;4.07;2.70;;;25.00;93.00;;;;;;5008762;28;20533;-80
2022/08/08 09:26:00;;;;;;;7.93;1.83;;;25.10;92.20;;;;;;4978741;28;20431;-81
2022/08/08 09:28:27;;;;;;;2.17;1.50;;;25.60;89.40;;;;;;5012431;28;20418;-81
2022/08/08 09:31:00;;;;;;;2.70;1.83;;;26.00;86.20;;;;;;4978228;28;21132;-80
2022/08/08 09:33:28;;;;;;;2.40;1.80;;;26.50;87.80;;;;;;5012385;28;20431;-81
2022/08/08 09:35:54;;;;;;;3.63;2.00;;;26.90;83.30;;;;;;5012330;28;20503;-81
2022/08/08 09:38:49;;;;;;;3.47;2.43;;;27.00;81.80;;;;;;4994348;28;20658;-80
2022/08/08 09:41:16;;;;;;;3.00;2.03;;;27.30;78.50;;;;;;4994956;28;20783;-81
2022/08/08 09:43:49;;;;;;;2.80;1.40;;;27.70;76.80;;;;;;4978724;28;20563;-81
2022/08/08 09:46:16;;;;;;;3.13;1.80;;;28.10;76.10;;;;;;4995012;28;20423;-81
2022/08/08 09:48:44;;;;;;;3.77;2.27;;;27.80;71.90;;;;;;4994457;28;20494;-80
2022/08/08 09:51:14;;;;;;;4.63;1.57;;;27.70;73.90;;;;;;4997634;28;20832;-81
2022/08/08 09:53:54;;;;;;;4.47;1.53;;;27.50;73.00;;;;;;4999458;28;20456;-80
2022/08/08 09:56:21;;;;;;;4.77;1.40;;;27.80;70.80;;;;;;5019853;28;20467;-81
2022/08/08 09:59:06;;;;;;;2.03;1.20;;;28.20;67.00;;;;;;5023672;28;20424;-81
2022/08/08 10:01:34;;;;;;;1.73;1.17;;;28.60;64.30;;;;;;5020053;28;20414;-80
2022/08/08 10:04:00;;;;;;;1.97;1.20;;;29.00;62.00;;;;;;4999985;28;20440;-80
2022/08/08 10:06:26;;;;;;;2.83;1.23;;;29.20;59.70;;;;;;4996729;28;20455;-80
2022/08/08 10:08:52;;;;;;;2.80;1.20;;;29.30;58.60;;;;;;4980085;28;20519;-81
2022/08/08 10:11:20;;;;;;;3.83;1.53;;;29.50;56.70;;;;;;4998189;28;20189;-80
2022/08/08 10:14:00;;;;;;;1.50;1.40;;;29.50;56.10;;;;;;4980501;28;20436;-79
2022/08/08 10:16:40;;;;;;;3.33;1.53;;;29.90;56.20;;;;;;5014956;28;20455;-79
2022/08/08 10:19:07;;;;;;;2.13;1.13;;;30.10;56.20;;;;;;5000342;28;20943;-79
2022/08/08 10:21:34;;;;;;;4.53;1.10;;;29.80;53.20;;;;;;4998879;28;20432;-78
2022/08/08 10:24:09;;;;;;;1.70;1.50;;;29.90;53.10;;;;;;5015844;28;20416;-79
2022/08/08 10:26:38;;;;;;;0.80;0.80;;;29.80;52.50;;;;;;5016910;28;20431;-78
2022/08/08 10:29:10;;;;;;;1.83;1.30;;;29.90;53.00;;;;;;5018909;28;20447;-79
2022/08/08 10:34:25;;;;;;;1.10;1.00;;;30.20;54.10;;;;;;5016358;28;20499;-78
2022/08/08 10:36:51;;;;;;;1.27;1.17;;;30.30;51.50;;;;;;4996652;28;20468;-78
2022/08/08 10:39:23;;;;;;;1.57;1.40;;;30.50;51.70;;;;;;4982593;28;20456;-78
2022/08/08 10:42:03;;;;;;;3.47;1.50;;;30.50;51.10;;;;;;4999327;28;20434;-78
2022/08/08 10:44:37;;;;;;;2.70;1.40;;;30.00;49.70;;;;;;4998200;28;20667;-78
2022/08/08 10:47:19;;;;;;;1.57;1.30;;;30.20;50.50;;;;;;4996790;28;20535;-78
2022/08/08 10:49:57;;;;;;;1.53;1.30;;;30.30;48.80;;;;;;5015909;28;20457;-78
2022/08/08 10:52:37;;;;;;;2.00;1.13;;;30.50;50.00;;;;;;4997033;28;20428;-79
2022/08/08 10:55:13;;;;;;;2.40;1.13;;;30.50;48.40;;;;;;4995549;28;20427;-78
2022/08/08 10:57:44;;;;;;;2.73;1.30;;;30.80;49.40;;;;;;5014924;28;20505;-78
2022/08/08 11:00:12;;;;;;;1.53;1.40;;;30.90;50.60;;;;;;5015484;28;20550;-79
2022/08/08 11:02:38;;;;;;;2.10;1.30;;;31.20;48.60;;;;;;5015913;28;21004;-78
2022/08/08 11:05:13;;;;;;;1.20;1.03;;;30.90;46.70;;;;;;5016532;28;20500;-79
2022/08/08 11:07:52;;;;;;;2.10;1.40;;;30.80;46.60;;;;;;4996787;28;20432;-78
2022/08/08 11:10:20;;;;;;;1.97;1.30;;;31.00;47.50;;;;;;4996133;28;20456;-79
2022/08/08 11:12:49;;;;;;;3.30;1.27;;;31.20;49.00;;;;;;4994939;28;20899;-78
2022/08/08 11:15:17;;;;;;;3.47;1.30;;;31.10;46.10;;;;;;5013557;28;20419;-78
2022/08/08 11:17:44;;;;;;;2.53;1.10;;;31.40;47.90;;;;;;5011108;28;20515;-78
2022/08/08 11:20:14;;;;;;;6.60;1.20;;;31.30;47.10;;;;;;5011541;28;20480;-78
2022/08/08 11:22:40;;;;;;;1.70;1.13;;;31.50;46.20;;;;;;4994098;28;20420;-78
2022/08/08 11:25:07;;;;;;;2.90;1.10;;;31.50;46.90;;;;;;4977288;28;20455;-78
2022/08/08 11:27:35;;;;;;;1.47;1.20;;;31.60;46.60;;;;;;4976999;28;20815;-78
2022/08/08 11:30:03;;;;;;;2.83;1.57;;;31.70;46.60;;;;;;5010723;28;20550;-78
2022/08/08 11:32:32;;;;;;;1.43;1.33;;;32.00;46.30;;;;;;4992599;28;20439;-78
2022/08/08 11:35:10;;;;;;;1.50;1.40;;;32.10;46.10;;;;;;5010500;28;20427;-78
2022/08/08 11:37:37;;;;;;;1.90;1.80;;;31.90;46.60;;;;;;4992380;28;20563;-78
2022/08/08 11:40:06;;;;;;;2.43;1.33;;;31.90;46.30;;;;;;5010104;28;20436;-78
2022/08/08 11:42:33;;;;;;;1.30;1.20;;;31.50;46.20;;;;;;4991534;28;20423;-78
2022/08/08 11:44:58;;;;;;;3.40;1.50;;;31.60;46.70;;;;;;5008977;28;20439;-77
2022/08/08 11:47:25;;;;;;;2.20;1.60;;;31.70;48.30;;;;;;4990607;28;20424;-78
2022/08/08 11:50:00;;;;;;;3.00;1.30;;;31.70;48.00;;;;;;5008758;28;20296;-78
2022/08/08 11:52:27;;;;;;;1.97;1.10;;;31.70;46.10;;;;;;5008906;28;20415;-77
2022/08/08 11:54:53;;;;;;;2.33;1.50;;;31.80;48.30;;;;;;5008695;28;20491;-78
2022/08/08 11:57:25;;;;;;;1.33;1.23;;;31.60;48.30;;;;;;5008462;28;20495;-77
2022/08/08 11:59:50;;;;;;;3.70;1.50;;;31.40;47.40;;;;;;4990461;28;20889;-77
2022/08/08 12:02:16;;;;;;;6.17;1.20;;;31.50;46.90;;;;;;5011147;28;20420;-78
2022/08/08 12:04:42;;;;;;;2.20;1.60;;;31.40;47.80;;;;;;4994033;28;20205;-78
2022/08/08 12:07:08;;;;;;;5.63;1.60;;;31.40;45.60;;;;;;5012971;28;20409;-77
2022/08/08 12:09:34;;;;;;;2.23;1.17;;;31.60;47.20;;;;;;4991119;28;20205;-80
2022/08/08 12:12:00;;;;;;;1.50;1.37;;;31.90;48.10;;;;;;5009186;28;20189;-80
2022/08/08 12:14:27;;;;;;;1.17;1.07;;;32.10;47.00;;;;;;4974604;28;20436;-80
2022/08/08 12:16:53;;;;;;;1.87;1.53;;;32.00;46.90;;;;;;4974880;28;21071;-80
2022/08/08 12:19:24;;;;;;;1.73;1.20;;;32.10;47.30;;;;;;4974960;28;20715;-80
2022/08/08 12:21:50;;;;;;;1.97;1.30;;;32.20;46.50;;;;;;4990965;28;20435;-80
2022/08/08 12:24:22;;;;;;;2.43;1.17;;;32.30;46.80;;;;;;4990920;28;20428;-80
2022/08/08 12:26:52;;;;;;;6.20;1.60;;;32.40;45.40;;;;;;4991247;28;20432;-80
2022/08/08 12:29:36;;;;;;;2.83;1.40;;;32.20;45.80;;;;;;5008454;28;20444;-80
2022/08/08 12:32:06;;;;;;;1.30;1.20;;;32.10;45.50;;;;;;5008996;28;20462;-80
2022/08/08 12:34:55;;;;;;;1.30;1.20;;;32.10;45.90;;;;;;4991292;28;20960;-80
2022/08/08 12:37:22;;;;;;;5.80;1.30;;;32.40;45.80;;;;;;4981672;28;20507;-81
2022/08/08 12:39:48;;;;;;;2.00;1.20;;;32.30;45.30;;;;;;5008487;28;20447;-80
2022/08/08 12:42:14;;;;;;;3.80;1.70;;;32.40;44.30;;;;;;4990893;28;20428;-80
2022/08/08 12:44:41;;;;;;;1.40;1.30;;;32.20;44.20;;;;;;4991288;28;20554;-80
2022/08/08 12:47:07;;;;;;;1.37;1.17;;;32.30;44.10;;;;;;4990908;28;20547;-80
2022/08/08 12:49:36;;;;;;;1.30;1.20;;;32.20;43.90;;;;;;5008708;28;20452;-80
2022/08/08 12:52:03;;;;;;;2.20;1.53;;;32.20;44.80;;;;;;4975011;28;20438;-81
2022/08/08 12:54:36;;;;;;;1.77;1.10;;;32.10;43.90;;;;;;5008699;28;21020;-80
2022/08/08 12:57:23;;;;;;;1.20;1.10;;;32.20;44.90;;;;;;5008747;28;20495;-81
2022/08/08 12:59:53;;;;;;;1.60;1.20;;;32.30;44.00;;;;;;5011125;28;20675;-80
2022/08/08 13:02:24;;;;;;;1.23;1.20;;;32.00;43.60;;;;;;4994027;28;20460;-79
2022/08/08 13:04:51;;;;;;;2.70;1.20;;;32.00;43.70;;;;;;5011682;28;20887;-80
2022/08/08 13:07:18;;;;;;;1.37;1.27;;;32.00;43.80;;;;;;5011826;28;20419;-80
2022/08/08 13:09:57;;;;;;;1.63;1.30;;;32.20;45.20;;;;;;4993824;28;20451;-80
2022/08/08 13:12:34;;;;;;;1.50;1.40;;;32.20;44.20;;;;;;5011924;28;21087;-80
2022/08/08 13:15:05;;;;;;;1.70;1.60;;;32.10;44.00;;;;;;4993900;28;20517;-81
2022/08/08 13:17:32;;;;;;;2.23;0.87;;;32.20;44.30;;;;;;4977767;28;20460;-80
2022/08/08 13:19:58;;;;;;;1.50;1.20;;;32.10;43.10;;;;;;4993629;28;20440;-79
2022/08/08 13:22:24;;;;;;;7.40;1.33;;;31.80;43.70;;;;;;4993139;28;20439;-80
2022/08/08 13:24:51;;;;;;;1.97;1.00;;;31.80;44.10;;;;;;4993358;28;20415;-80
2022/08/08 13:27:26;;;;;;;1.50;1.40;;;31.90;42.70;;;;;;4993273;28;20428;-80
2022/08/08 13:29:58;;;;;;;2.73;1.23;;;32.00;43.50;;;;;;5011324;28;20524;-81